South Bend, IN

9:47 PM EDT en Marzo 27, 2015 (GMT -0400)
Holy Cross Village | | Change Station
CLOSE
Current Station
Estación meteorológica personal
Location: Notre Dame, IN
Altura: 719 ft
Estaciones meteorológicas cercanas

Alt 719 ft 41.70 °N, 86.25 °W | Updated 4 minutes ago

Parcialmente nublado
Parcialmente nublado
20.8 ° F
Sensación térmica 16 ° F
N
3.2
Viento Variable Viento desde Oeste

Hoy
Alta -- | Baja -- ° F
--% Posibilidad de precipitaciones
Ayer
Alta -- | Baja -- ° F
Precip. -- pul
7:36 AM 8:04 PM
Cuarto creciente, 57% visible
Presión 30.16 pul
Visibilidad 10.0 Millas
Nubes Nubes dispersas 2900 ft
Vientos helados 16 ° F
Punto de rocío 13 ° F
Humedad 70%
Precipitaciones 0.00 pul
Espesor de la nieve No disponible.
UV 0 de una escala de 12
Polen 2.30 de una escala de 12
Calidad del aire No disponible.
Flu Activity No disponible.
SPECI KSBN 280104Z 35013KT 10SM SCT029 M06/M12 A3016 RMK AO2 T10561122

More Conditions Fewer Conditions

Presión 30.16 pul
Visibilidad 10.0 Millas
Nubes Nubes dispersas 2900 ft
Vientos helados 16 ° F
Punto de rocío 13 ° F
Humedad 70%
Precipitaciones 0.00 pul
Espesor de la nieve No disponible.
UV 0 de una escala de 12
Polen 2.30 de una escala de 12
Calidad del aire No disponible.
Flu Activity No disponible.
SPECI KSBN 280104Z 35013KT 10SM SCT029 M06/M12 A3016 RMK AO2 T10561122

More Conditions Fewer Conditions

10-Day Weather Forecast

Almanac

Astronomía

Mar. 27, 2015 Salida Puesta
Hora real
Crepúsculo civil
Crepúsculo náutico
Crepúsculo astronómico
Luna
Horas de luz
Horas de luz
Tomorrow will be .
, % of the Moon is Illuminated

Extremos de hoy

Máximos del estado Bajos del estado

Community

WunderPhotos

Upload Photos

1,808,911 ¡fotos cargadas!

WunderBlogs® & News

Nearby

Calidad del aire

  Calidad del aire Índice AQ Contaminante
Not available.

Grosos de nieve

Estación Profundido Altura

Actividad de terremotos

Ciudad Distance Mag. Tiempo y dato
Magnitud mínima muestra es 2,5.

Temperaturas de aguas costeras

Lugar Temperatura

Stations

Estaciones meteorológicas cercanas

Ubicación de la estación Temp. Vientos helados Punto de rocío Humedad Viento Precip. Alt Actualizado Tipo